Time;durP1;ratioP1;P1;durP2;ratioP2;P2;SDS_P1;SDS_P2;PMS_P1;PMS_P2;Temp;Humidity;BMP_temperature;BMP_pressure;BME280_temperature;BME280_humidity;BME280_pressure;Samples;Min_cycle;Max_cycle;Signal;HPM_P1;HPM_P2
2023/04/14 00:00:22;;;;;;;;;;;19.00;99.90;;;;;;5117193;27;20002;-61
2023/04/14 00:02:49;;;;;;;;;;;19.00;99.90;;;;;;5119059;27;19907;-68
2023/04/14 00:05:16;;;;;;;;;;;19.10;99.90;;;;;;5118379;27;19908;-65
2023/04/14 00:07:42;;;;;;;;;;;19.10;99.90;;;;;;5118070;27;19911;-66
2023/04/14 00:10:09;;;;;;;;;;;19.20;99.90;;;;;;5118526;27;20317;-67
2023/04/14 00:12:36;;;;;;;;;;;19.30;99.90;;;;;;5116367;27;20105;-62
2023/04/14 00:15:03;;;;;;;;;;;19.40;99.90;;;;;;5118680;27;19950;-62
2023/04/14 00:17:30;;;;;;;;;;;19.50;99.90;;;;;;5116018;27;19949;-65
2023/04/14 00:19:57;;;;;;;;;;;19.60;99.90;;;;;;5119676;27;20173;-66
2023/04/14 00:22:23;;;;;;;;;;;19.70;99.90;;;;;;5115489;27;19911;-63
2023/04/14 00:24:50;;;;;;;;;;;19.80;99.90;;;;;;5119418;27;19908;-66
2023/04/14 00:27:16;;;;;;;;;;;19.80;99.90;;;;;;5118296;27;20282;-64
2023/04/14 00:29:43;;;;;;;;;;;19.90;99.90;;;;;;5116456;27;20110;-63
2023/04/14 00:32:10;;;;;;;;;;;19.90;99.90;;;;;;5118848;27;20006;-64
2023/04/14 00:34:36;;;;;;;;;;;20.00;99.90;;;;;;5115228;27;19908;-64
2023/04/14 00:37:03;;;;;;;;;;;20.10;99.90;;;;;;5120389;28;19908;-65
2023/04/14 00:39:30;;;;;;;;;;;20.30;99.90;;;;;;5115569;28;19980;-63
2023/04/14 00:41:57;;;;;;;;;;;20.50;99.90;;;;;;5115509;28;19907;-62
2023/04/14 00:44:24;;;;;;;;;;;20.80;99.90;;;;;;5098091;28;20432;-69
2023/04/14 00:46:50;;;;;;;;;;;20.90;99.90;;;;;;5096822;28;19907;-69
2023/04/14 00:49:18;;;;;;;;;;;21.10;99.90;;;;;;5097399;28;19908;-62
2023/04/14 00:51:46;;;;;;;;;;;21.30;99.90;;;;;;5095487;28;20132;-68
2023/04/14 00:54:14;;;;;;;;;;;21.30;99.90;;;;;;5097059;28;20272;-72
2023/04/14 00:56:41;;;;;;;;;;;21.40;99.90;;;;;;5096245;28;20106;-68
2023/04/14 00:59:08;;;;;;;;;;;21.60;99.90;;;;;;5097621;28;20353;-72
2023/04/14 01:01:39;;;;;;;;;;;21.70;99.90;;;;;;5095235;28;19908;-70
2023/04/14 01:04:06;;;;;;;;;;;21.70;99.90;;;;;;5098617;28;19986;-70
2023/04/14 01:06:33;;;;;;;;;;;21.70;99.90;;;;;;5093803;28;19908;-71
2023/04/14 01:09:00;;;;;;;;;;;21.60;99.90;;;;;;5098118;28;20002;-71
2023/04/14 01:11:45;;;;;;;;;;;21.60;99.90;;;;;;5099580;28;19911;-66
2023/04/14 01:14:12;;;;;;;;;;;21.20;99.90;;;;;;5102171;28;19908;-64
2023/04/14 01:16:40;;;;;;;;;;;20.70;99.90;;;;;;5099858;28;19908;-64
2023/04/14 01:19:25;;;;;;;;;;;20.30;99.90;;;;;;5099635;28;19923;-61
2023/04/14 01:21:54;;;;;;;;;;;19.90;99.90;;;;;;5098403;28;19957;-63
2023/04/14 01:24:37;;;;;;;;;;;19.70;99.90;;;;;;5115747;27;20300;-70
2023/04/14 01:27:21;;;;;;;;;;;19.60;99.90;;;;;;5120012;27;19915;-63
2023/04/14 01:29:57;;;;;;;;;;;19.40;99.90;;;;;;5118442;27;19912;-63
2023/04/14 01:32:25;;;;;;;;;;;19.30;99.90;;;;;;5102660;27;19916;-67
2023/04/14 01:35:00;;;;;;;;;;;19.40;99.90;;;;;;5085973;28;20634;-70
2023/04/14 01:37:34;;;;;;;;;;;19.40;99.90;;;;;;5100934;28;20348;-67
2023/04/14 01:40:04;;;;;;;;;;;19.50;99.90;;;;;;5066366;28;19916;-62
2023/04/14 01:42:35;;;;;;;;;;;19.50;99.90;;;;;;5079868;28;19960;-67
2023/04/14 01:45:10;;;;;;;;;;;19.50;99.90;;;;;;5079453;28;20269;-66
2023/04/14 01:47:37;;;;;;;;;;;19.40;99.90;;;;;;5079051;27;19912;-62
2023/04/14 01:50:05;;;;;;;;;;;19.40;99.90;;;;;;5098276;28;20249;-62
2023/04/14 01:52:33;;;;;;;;;;;19.50;99.90;;;;;;5095207;28;19919;-63
2023/04/14 01:55:04;;;;;;;;;;;19.60;99.90;;;;;;5097808;28;19973;-64
2023/04/14 01:57:33;;;;;;;;;;;19.90;99.90;;;;;;5100628;28;19973;-61
2023/04/14 02:00:00;;;;;;;;;;;20.20;99.90;;;;;;5082618;28;19935;-60
2023/04/14 02:02:28;;;;;;;;;;;20.30;99.90;;;;;;5096448;28;19911;-70
2023/04/14 02:04:56;;;;;;;;;;;20.60;99.90;;;;;;5097841;28;20387;-62
2023/04/14 02:07:24;;;;;;;;;;;21.10;99.90;;;;;;5089575;28;19912;-67
2023/04/14 02:09:51;;;;;;;;;;;21.60;99.90;;;;;;5079786;28;19935;-66
2023/04/14 02:12:19;;;;;;;;;;;22.00;99.90;;;;;;5088697;28;19927;-68
2023/04/14 02:14:46;;;;;;;;;;;22.40;99.90;;;;;;5097136;28;20367;-67
2023/04/14 02:17:13;;;;;;;;;;;22.90;99.90;;;;;;5096936;28;20184;-67
2023/04/14 02:19:42;;;;;;;;;;;23.10;99.90;;;;;;5086231;28;19928;-64
2023/04/14 02:22:08;;;;;;;;;;;23.10;99.90;;;;;;5083217;28;19989;-70
2023/04/14 02:24:35;;;;;;;;;;;23.30;99.90;;;;;;5086132;28;19916;-70
2023/04/14 02:27:06;;;;;;;;;;;23.30;99.90;;;;;;5082564;28;20176;-60
2023/04/14 02:29:34;;;;;;;;;;;23.40;99.90;;;;;;5079671;28;19912;-61
2023/04/14 02:32:05;;;;;;;;;;;23.30;99.90;;;;;;5084490;28;20488;-66
2023/04/14 02:34:37;;;;;;;;;;;23.30;99.90;;;;;;5084486;28;20478;-65
2023/04/14 02:37:08;;;;;;;;;;;23.30;99.90;;;;;;5098185;28;19908;-67
2023/04/14 02:39:38;;;;;;;;;;;23.10;99.90;;;;;;5089120;28;20293;-66
2023/04/14 02:42:11;;;;;;;;;;;23.00;99.90;;;;;;5076847;28;19995;-69
2023/04/14 02:44:41;;;;;;;;;;;23.10;99.90;;;;;;5077801;28;19954;-68
2023/04/14 02:47:09;;;;;;;;;;;23.40;99.90;;;;;;5075378;28;20323;-61
2023/04/14 02:49:39;;;;;;;;;;;24.30;99.90;;;;;;5077645;28;20631;-61
2023/04/14 02:52:08;;;;;;;;;;;25.50;99.90;;;;;;5074692;28;20162;-62
2023/04/14 02:54:35;;;;;;;;;;;26.10;99.90;;;;;;5077220;28;20420;-69
2023/04/14 02:57:03;;;;;;;;;;;26.00;99.90;;;;;;5086982;28;19964;-63
2023/04/14 02:59:31;;;;;;;;;;;26.80;99.90;;;;;;5081678;28;19919;-64
2023/04/14 03:02:04;;;;;;;;;;;28.10;98.10;;;;;;5080650;28;20056;-64
2023/04/14 03:04:34;;;;;;;;;;;29.30;95.70;;;;;;5098712;28;20264;-65
2023/04/14 03:07:01;;;;;;;;;;;30.10;93.10;;;;;;5091534;27;19912;-66
2023/04/14 03:09:30;;;;;;;;;;;30.30;91.90;;;;;;5078352;28;19919;-67
2023/04/14 03:11:57;;;;;;;;;;;30.60;91.40;;;;;;5090706;27;19912;-72
2023/04/14 03:14:24;;;;;;;;;;;31.20;90.80;;;;;;5100747;27;20044;-72
2023/04/14 03:16:51;;;;;;;;;;;31.90;88.40;;;;;;5100724;27;20094;-64
2023/04/14 03:19:21;;;;;;;;;;;31.70;87.50;;;;;;5118428;27;19915;-70
2023/04/14 03:21:49;;;;;;;;;;;31.10;88.40;;;;;;5119091;27;19962;-68
2023/04/14 03:24:23;;;;;;;;;;;31.60;87.70;;;;;;5098914;27;19959;-69
2023/04/14 03:27:15;;;;;;;;;;;32.10;87.00;;;;;;5092429;27;19943;-68
2023/04/14 03:29:47;;;;;;;;;;;31.90;85.80;;;;;;5106043;27;19939;-59
2023/04/14 03:32:14;;;;;;;;;;;30.60;88.10;;;;;;5088513;27;20348;-61
2023/04/14 03:34:42;;;;;;;;;;;29.50;89.60;;;;;;5086833;27;20400;-71
2023/04/14 03:37:09;;;;;;;;;;;29.20;90.90;;;;;;5102800;27;20110;-61
2023/04/14 03:39:38;;;;;;;;;;;30.40;88.10;;;;;;5114755;27;19915;-61
2023/04/14 03:42:07;;;;;;;;;;;31.50;87.20;;;;;;5100951;27;19908;-70
2023/04/14 03:44:35;;;;;;;;;;;33.00;83.10;;;;;;5104506;27;19912;-62
2023/04/14 03:47:06;;;;;;;;;;;33.20;82.00;;;;;;5083362;28;19911;-71
2023/04/14 03:49:35;;;;;;;;;;;32.80;81.70;;;;;;5086267;27;19912;-71
2023/04/14 03:52:05;;;;;;;;;;;32.00;82.90;;;;;;5094484;28;19962;-70
2023/04/14 03:54:32;;;;;;;;;;;31.60;84.00;;;;;;5091619;28;19912;-69
2023/04/14 03:57:00;;;;;;;;;;;31.50;83.50;;;;;;5076245;28;19961;-64
2023/04/14 03:59:27;;;;;;;;;;;32.10;83.20;;;;;;5076578;28;19916;-61
2023/04/14 04:01:55;;;;;;;;;;;33.20;79.60;;;;;;5077492;28;19954;-60
2023/04/14 04:04:24;;;;;;;;;;;33.50;79.40;;;;;;5075160;28;19939;-64
2023/04/14 04:06:51;;;;;;;;;;;33.80;76.70;;;;;;5097337;28;19908;-68
2023/04/14 04:09:20;;;;;;;;;;;34.10;76.10;;;;;;5092843;28;20100;-67
2023/04/14 04:11:47;;;;;;;;;;;34.50;75.80;;;;;;5097553;28;19912;-69
2023/04/14 04:14:15;;;;;;;;;;;35.00;74.30;;;;;;5095168;28;19951;-63
2023/04/14 04:16:42;;;;;;;;;;;35.60;73.10;;;;;;5098587;28;19958;-62
2023/04/14 04:19:09;;;;;;;;;;;36.20;73.40;;;;;;5096018;28;19923;-61
2023/04/14 04:21:41;;;;;;;;;;;36.40;70.80;;;;;;5096508;28;19912;-69
2023/04/14 04:24:08;;;;;;;;;;;35.30;72.10;;;;;;5095827;28;19955;-69
2023/04/14 04:26:34;;;;;;;;;;;34.50;75.00;;;;;;5096748;28;19912;-63
2023/04/14 04:29:02;;;;;;;;;;;34.80;73.50;;;;;;5096577;28;20590;-62
2023/04/14 04:31:31;;;;;;;;;;;34.60;72.80;;;;;;5097400;28;19953;-65
2023/04/14 04:33:58;;;;;;;;;;;33.90;74.50;;;;;;5097106;28;19946;-62
2023/04/14 04:36:28;;;;;;;;;;;33.90;74.90;;;;;;5097195;28;19915;-70
2023/04/14 04:38:55;;;;;;;;;;;34.40;74.30;;;;;;5097304;28;19938;-69
2023/04/14 04:41:26;;;;;;;;;;;35.00;73.30;;;;;;5096520;28;19908;-69
2023/04/14 04:43:53;;;;;;;;;;;35.40;71.00;;;;;;5085464;28;20110;-65
2023/04/14 04:46:32;;;;;;;;;;;34.60;73.00;;;;;;5084244;27;20226;-60
2023/04/14 04:48:58;;;;;;;;;;;34.60;72.30;;;;;;5100046;27;19919;-62
2023/04/14 04:51:25;;;;;;;;;;;34.30;72.90;;;;;;5100997;28;19931;-60
2023/04/14 04:53:52;;;;;;;;;;;33.10;73.70;;;;;;5100178;28;19953;-69
2023/04/14 04:56:18;;;;;;;;;;;31.20;76.00;;;;;;5100324;28;19912;-68
2023/04/14 04:58:45;;;;;;;;;;;29.70;80.40;;;;;;5100349;28;19912;-63
2023/04/14 05:01:13;;;;;;;;;;;28.40;84.30;;;;;;5099622;28;19957;-61
2023/04/14 05:03:40;;;;;;;;;;;27.30;86.50;;;;;;5099986;28;20002;-61
2023/04/14 05:06:07;;;;;;;;;;;26.10;91.40;;;;;;5095048;27;19912;-63
2023/04/14 05:08:33;;;;;;;;;;;25.40;93.20;;;;;;5116680;27;19993;-77
2023/04/14 05:11:00;;;;;;;;;;;24.40;94.90;;;;;;5121274;27;20043;-74
2023/04/14 05:13:27;;;;;;;;;;;23.70;97.70;;;;;;5120382;27;19994;-72
2023/04/14 05:16:13;;;;;;;;;;;23.20;99.50;;;;;;5120489;27;19907;-75
2023/04/14 05:18:41;;;;;;;;;;;22.80;99.90;;;;;;5119969;27;19908;-64
2023/04/14 05:21:13;;;;;;;;;;;22.40;99.90;;;;;;5121140;27;19940;-69
2023/04/14 05:23:42;;;;;;;;;;;22.30;99.90;;;;;;5120441;27;19920;-66
2023/04/14 05:26:09;;;;;;;;;;;23.50;99.90;;;;;;5120559;27;19924;-67
2023/04/14 05:28:36;;;;;;;;;;;25.70;99.90;;;;;;5121138;27;19995;-62
2023/04/14 05:31:02;;;;;;;;;;;28.10;97.10;;;;;;5120789;27;20540;-70
2023/04/14 05:33:29;;;;;;;;;;;28.80;93.90;;;;;;5119563;27;20006;-71
2023/04/14 05:35:55;;;;;;;;;;;28.10;94.00;;;;;;5120158;27;20599;-63
2023/04/14 05:38:22;;;;;;;;;;;27.30;94.80;;;;;;5119740;27;19912;-73
2023/04/14 05:40:49;;;;;;;;;;;26.30;95.20;;;;;;5120039;27;19923;-64
2023/04/14 05:43:16;;;;;;;;;;;25.60;97.90;;;;;;5113168;27;20276;-64
2023/04/14 05:45:45;;;;;;;;;;;26.30;97.90;;;;;;5100161;28;19908;-63
2023/04/14 05:48:13;;;;;;;;;;;27.90;95.10;;;;;;5099509;28;20050;-63
2023/04/14 05:50:40;;;;;;;;;;;28.70;92.50;;;;;;5100410;28;20371;-63
2023/04/14 05:53:06;;;;;;;;;;;29.40;91.80;;;;;;5100270;28;19908;-63
2023/04/14 05:55:33;;;;;;;;;;;30.80;90.30;;;;;;5097871;28;20080;-60
2023/04/14 05:58:00;;;;;;;;;;;31.50;88.00;;;;;;5099360;28;19919;-71
2023/04/14 06:00:27;;;;;;;;;;;32.30;84.80;;;;;;5099004;28;19923;-71
2023/04/14 06:02:53;;;;;;;;;;;33.20;83.80;;;;;;5099431;28;20399;-71
2023/04/14 06:05:21;;;;;;;;;;;34.00;81.30;;;;;;5098390;28;20171;-61
2023/04/14 06:07:47;;;;;;;;;;;34.30;79.50;;;;;;5090964;28;19912;-62
2023/04/14 06:10:14;;;;;;;;;;;34.10;79.30;;;;;;5100574;28;19961;-64
2023/04/14 06:12:40;;;;;;;;;;;33.80;80.90;;;;;;5099584;28;19908;-67
2023/04/14 06:15:07;;;;;;;;;;;34.00;79.60;;;;;;5098845;28;19908;-61
2023/04/14 06:17:34;;;;;;;;;;;33.40;78.40;;;;;;5097129;28;20184;-63
2023/04/14 06:20:01;;;;;;;;;;;32.30;79.90;;;;;;5098614;28;20357;-63
2023/04/14 06:22:31;;;;;;;;;;;30.70;82.70;;;;;;5098197;28;19949;-62
2023/04/14 06:24:58;;;;;;;;;;;29.10;86.40;;;;;;5098969;28;19919;-60
2023/04/14 06:27:24;;;;;;;;;;;27.60;89.80;;;;;;5098431;28;19915;-68
2023/04/14 06:29:51;;;;;;;;;;;26.50;91.50;;;;;;5099032;28;19908;-67
2023/04/14 06:32:19;;;;;;;;;;;25.50;93.00;;;;;;5099817;28;19915;-66
2023/04/14 06:34:47;;;;;;;;;;;24.70;93.90;;;;;;5100032;28;20400;-64
2023/04/14 06:37:15;;;;;;;;;;;24.20;95.80;;;;;;5091269;28;19912;-68
2023/04/14 06:39:41;;;;;;;;;;;23.80;97.20;;;;;;5077973;28;20186;-69
2023/04/14 06:42:11;;;;;;;;;;;23.40;98.10;;;;;;5078030;28;20374;-67
2023/04/14 06:44:39;;;;;;;;;;;23.10;99.30;;;;;;5077289;28;20127;-68
2023/04/14 06:47:05;;;;;;;;;;;22.90;99.90;;;;;;5078080;28;19908;-61
2023/04/14 06:49:32;;;;;;;;;;;22.60;99.80;;;;;;5077110;28;20368;-68
2023/04/14 06:51:59;;;;;;;;;;;22.40;99.90;;;;;;5079808;28;19911;-60
2023/04/14 06:54:25;;;;;;;;;;;22.20;99.90;;;;;;5114172;27;19926;-66
2023/04/14 06:56:52;;;;;;;;;;;22.10;99.90;;;;;;5079620;28;20380;-68
2023/04/14 06:59:20;;;;;;;;;;;22.10;99.90;;;;;;5095138;27;19931;-69
2023/04/14 07:01:46;;;;;;;;;;;21.90;99.90;;;;;;5082597;28;20060;-67
2023/04/14 07:04:14;;;;;;;;;;;21.70;99.90;;;;;;5093239;28;20000;-68
2023/04/14 07:06:40;;;;;;;;;;;21.60;99.90;;;;;;5100257;28;19947;-67
2023/04/14 07:09:07;;;;;;;;;;;21.50;99.90;;;;;;5095125;28;19976;-68
2023/04/14 07:11:34;;;;;;;;;;;21.50;99.90;;;;;;5098425;28;19943;-67
2023/04/14 07:14:00;;;;;;;;;;;21.30;99.90;;;;;;5096688;28;19949;-67
2023/04/14 07:16:27;;;;;;;;;;;21.20;99.90;;;;;;5097113;28;19908;-68
2023/04/14 07:18:54;;;;;;;;;;;21.10;99.90;;;;;;5091060;28;20364;-68
2023/04/14 07:21:21;;;;;;;;;;;21.00;99.90;;;;;;5080062;28;20082;-68
2023/04/14 07:23:47;;;;;;;;;;;20.80;99.90;;;;;;5084379;28;19927;-66
2023/04/14 07:26:14;;;;;;;;;;;20.80;99.90;;;;;;5086543;27;19927;-67
2023/04/14 07:28:41;;;;;;;;;;;20.70;99.90;;;;;;5117871;27;20368;-68
2023/04/14 07:31:08;;;;;;;;;;;20.60;99.90;;;;;;5110990;27;19956;-68
2023/04/14 07:33:35;;;;;;;;;;;20.60;99.90;;;;;;5097515;28;20086;-67
2023/04/14 07:36:03;;;;;;;;;;;20.50;99.90;;;;;;5096429;28;19998;-67
2023/04/14 07:38:31;;;;;;;;;;;20.40;99.90;;;;;;5096913;27;20127;-67
2023/04/14 07:40:58;;;;;;;;;;;20.40;99.90;;;;;;5094515;28;20427;-64
2023/04/14 07:43:25;;;;;;;;;;;20.40;99.90;;;;;;5096705;28;19908;-68
2023/04/14 07:45:52;;;;;;;;;;;20.40;99.90;;;;;;5097780;28;19908;-68
2023/04/14 07:48:20;;;;;;;;;;;20.30;99.90;;;;;;5077235;28;20521;-61
2023/04/14 07:50:48;;;;;;;;;;;20.30;99.90;;;;;;5097102;28;20318;-62
2023/04/14 07:53:15;;;;;;;;;;;20.30;99.90;;;;;;5076177;28;19916;-61
2023/04/14 07:55:42;;;;;;;;;;;20.20;99.90;;;;;;5077474;28;19909;-64
2023/04/14 07:58:08;;;;;;;;;;;20.20;99.90;;;;;;5080530;27;20344;-68
2023/04/14 08:00:35;;;;;;;;;;;20.10;99.90;;;;;;5082591;27;20022;-63
2023/04/14 08:03:01;;;;;;;;;;;20.10;99.90;;;;;;5117605;27;20006;-68
2023/04/14 08:05:28;;;;;;;;;;;20.00;99.90;;;;;;5079461;27;20546;-68
2023/04/14 08:07:55;;;;;;;;;;;20.00;99.90;;;;;;5077159;28;19912;-70
2023/04/14 08:10:21;;;;;;;;;;;19.90;99.90;;;;;;5075376;28;19908;-64
2023/04/14 08:12:48;;;;;;;;;;;19.90;99.90;;;;;;5077532;28;19912;-64
2023/04/14 08:15:15;;;;;;;;;;;19.80;99.90;;;;;;5076023;28;20357;-68
2023/04/14 08:17:41;;;;;;;;;;;19.70;99.90;;;;;;5076846;28;20280;-68
2023/04/14 08:20:08;;;;;;;;;;;19.70;99.90;;;;;;5075183;28;20088;-66
2023/04/14 08:22:35;;;;;;;;;;;19.60;99.90;;;;;;5076865;28;19920;-63
2023/04/14 08:25:02;;;;;;;;;;;19.70;99.90;;;;;;5076882;28;20311;-66
2023/04/14 08:27:28;;;;;;;;;;;19.60;99.90;;;;;;5075319;28;20181;-67
2023/04/14 08:29:55;;;;;;;;;;;19.60;99.90;;;;;;5076861;28;20093;-68
2023/04/14 08:32:22;;;;;;;;;;;19.60;99.90;;;;;;5075522;28;19951;-68
2023/04/14 08:34:48;;;;;;;;;;;19.50;99.90;;;;;;5077114;28;19991;-68
2023/04/14 08:37:15;;;;;;;;;;;19.50;99.90;;;;;;5075483;28;19915;-69
2023/04/14 08:39:42;;;;;;;;;;;19.40;99.90;;;;;;5078442;28;19916;-69
2023/04/14 08:42:09;;;;;;;;;;;19.40;99.90;;;;;;5075997;28;20007;-66
2023/04/14 08:44:36;;;;;;;;;;;19.30;99.90;;;;;;5075943;28;19918;-69
2023/04/14 08:47:03;;;;;;;;;;;19.20;99.90;;;;;;5077029;28;19996;-73
2023/04/14 08:49:45;;;;;;;;;;;19.10;99.90;;;;;;5078293;28;20352;-69
2023/04/14 08:52:12;;;;;;;;;;;19.00;99.90;;;;;;5096171;28;19907;-69
2023/04/14 08:54:42;;;;;;;;;;;19.00;99.90;;;;;;5077706;28;19920;-69
2023/04/14 08:57:11;;;;;;;;;;;18.80;99.90;;;;;;5095439;28;20347;-69
2023/04/14 08:59:38;;;;;;;;;;;18.70;99.90;;;;;;5096417;28;20373;-70
2023/04/14 09:02:05;;;;;;;;;;;18.60;99.90;;;;;;5078270;28;20304;-70
2023/04/14 09:04:33;;;;;;;;;;;18.50;99.90;;;;;;5095253;28;20008;-65
2023/04/14 09:07:01;;;;;;;;;;;18.40;99.90;;;;;;5096298;28;20375;-66
2023/04/14 09:09:28;;;;;;;;;;;18.40;99.90;;;;;;5095764;28;19915;-69
2023/04/14 09:11:55;;;;;;;;;;;18.30;99.90;;;;;;5089990;28;19916;-71
2023/04/14 09:14:22;;;;;;;;;;;18.30;99.90;;;;;;5091261;28;19919;-68
2023/04/14 09:16:52;;;;;;;;;;;18.30;99.90;;;;;;5096101;28;19912;-68
2023/04/14 09:19:23;;;;;;;;;;;18.20;99.90;;;;;;5099211;28;19916;-65
2023/04/14 09:21:50;;;;;;;;;;;18.10;99.90;;;;;;5092642;28;19959;-72
2023/04/14 09:24:22;;;;;;;;;;;18.10;99.90;;;;;;5078580;28;20016;-73
2023/04/14 09:26:49;;;;;;;;;;;18.10;99.90;;;;;;5084561;28;20173;-67
2023/04/14 09:29:16;;;;;;;;;;;18.00;99.90;;;;;;5081509;28;19912;-64
2023/04/14 09:31:44;;;;;;;;;;;18.00;99.90;;;;;;5087813;28;19935;-67
2023/04/14 09:34:16;;;;;;;;;;;18.00;99.90;;;;;;5086513;27;20445;-69
2023/04/14 09:36:59;;;;;;;;;;;18.00;99.90;;;;;;5087914;28;19918;-68
2023/04/14 09:39:26;;;;;;;;;;;18.00;99.90;;;;;;5115488;27;19911;-69
2023/04/14 09:41:53;;;;;;;;;;;18.00;99.90;;;;;;5116675;27;19994;-66
2023/04/14 09:44:19;;;;;;;;;;;18.00;99.90;;;;;;5100158;28;20205;-70
2023/04/14 09:47:04;;;;;;;;;;;18.00;99.90;;;;;;5099770;28;19915;-65
2023/04/14 09:49:31;;;;;;;;;;;17.90;99.90;;;;;;5093650;28;19941;-71
2023/04/14 09:52:07;;;;;;;;;;;18.00;99.90;;;;;;5096630;28;19912;-70
2023/04/14 09:54:34;;;;;;;;;;;18.00;99.90;;;;;;5098648;28;20360;-69
2023/04/14 09:57:04;;;;;;;;;;;18.00;99.90;;;;;;5098236;28;19964;-73
2023/04/14 09:59:33;;;;;;;;;;;18.00;99.90;;;;;;5098525;28;19977;-72
2023/04/14 10:02:02;;;;;;;;;;;18.00;99.90;;;;;;5098732;28;20399;-75
2023/04/14 10:04:30;;;;;;;;;;;18.00;99.90;;;;;;5098575;28;19956;-62
2023/04/14 10:07:00;;;;;;;;;;;18.00;99.90;;;;;;5097760;28;19911;-64
2023/04/14 10:09:27;;;;;;;;;;;18.00;99.90;;;;;;5085415;28;20163;-74
2023/04/14 10:12:13;;;;;;;;;;;18.00;99.90;;;;;;5100191;28;19938;-67
2023/04/14 10:14:41;;;;;;;;;;;18.10;99.90;;;;;;5096792;28;19912;-65
2023/04/14 10:17:08;;;;;;;;;;;18.10;99.90;;;;;;5096863;28;20369;-73
2023/04/14 10:19:35;;;;;;;;;;;18.20;99.90;;;;;;5077471;28;19966;-64
2023/04/14 10:22:02;;;;;;;;;;;18.10;99.90;;;;;;5089931;28;19908;-71
2023/04/14 10:24:28;;;;;;;;;;;18.10;99.90;;;;;;5083501;28;19920;-63
2023/04/14 10:26:55;;;;;;;;;;;18.00;99.90;;;;;;5097908;28;19915;-70
2023/04/14 10:29:22;;;;;;;;;;;18.00;99.90;;;;;;5081643;28;19916;-72
2023/04/14 10:31:49;;;;;;;;;;;17.90;99.90;;;;;;5083937;27;19973;-71
2023/04/14 10:34:17;;;;;;;;;;;17.90;99.90;;;;;;5097508;28;20676;-73
2023/04/14 10:36:43;;;;;;;;;;;17.80;99.90;;;;;;5107628;27;20086;-62
2023/04/14 10:39:11;;;;;;;;;;;17.80;99.90;;;;;;5117230;27;19916;-65
2023/04/14 10:41:45;;;;;;;;;;;17.80;99.90;;;;;;5116253;27;20041;-72
2023/04/14 10:44:28;;;;;;;;;;;17.70;99.90;;;;;;5117125;27;19907;-64
2023/04/14 10:46:55;;;;;;;;;;;17.60;99.90;;;;;;5107806;27;19923;-68
2023/04/14 10:49:43;;;;;;;;;;;17.60;99.90;;;;;;5083016;28;19912;-69
2023/04/14 10:52:15;;;;;;;;;;;17.50;99.90;;;;;;5105991;27;19916;-71
2023/04/14 10:54:49;;;;;;;;;;;17.40;99.90;;;;;;5078297;28;19949;-63
2023/04/14 10:57:17;;;;;;;;;;;17.40;99.90;;;;;;5077798;28;19915;-63
2023/04/14 10:59:47;;;;;;;;;;;17.40;99.90;;;;;;5077990;28;19916;-71
2023/04/14 11:02:24;;;;;;;;;;;17.30;99.90;;;;;;5077868;28;19909;-63
2023/04/14 11:05:10;;;;;;;;;;;17.30;99.90;;;;;;5076543;28;20080;-65
2023/04/14 11:07:39;;;;;;;;;;;17.30;99.90;;;;;;5076565;28;20341;-63
2023/04/14 11:10:23;;;;;;;;;;;17.20;99.90;;;;;;5097175;27;20008;-71
2023/04/14 11:12:57;;;;;;;;;;;17.20;99.90;;;;;;5117987;27;20158;-71
2023/04/14 11:15:24;;;;;;;;;;;17.20;99.90;;;;;;5118053;27;19911;-71
2023/04/14 11:17:50;;;;;;;;;;;17.10;99.90;;;;;;5117823;27;20090;-64
2023/04/14 11:20:21;;;;;;;;;;;17.10;99.90;;;;;;5118553;27;19915;-68
2023/04/14 11:22:49;;;;;;;;;;;17.10;99.90;;;;;;5117542;27;19915;-70
2023/04/14 11:25:21;;;;;;;;;;;17.00;99.90;;;;;;5117769;27;21346;-61
2023/04/14 11:27:47;;;;;;;;;;;17.00;99.90;;;;;;5117943;27;19912;-60
2023/04/14 11:30:15;;;;;;;;;;;17.00;99.90;;;;;;5118391;27;20265;-69
2023/04/14 11:32:58;;;;;;;;;;;16.90;99.90;;;;;;5117193;27;19976;-69
2023/04/14 11:35:28;;;;;;;;;;;16.90;99.90;;;;;;5117769;27;20081;-61
2023/04/14 11:37:55;;;;;;;;;;;16.80;99.90;;;;;;5082006;27;19957;-64
2023/04/14 11:40:22;;;;;;;;;;;16.80;99.90;;;;;;5077149;28;19932;-70
2023/04/14 11:42:53;;;;;;;;;;;16.90;99.90;;;;;;5076708;28;19914;-63
2023/04/14 11:45:20;;;;;;;;;;;16.80;99.90;;;;;;5059060;28;19959;-67
2023/04/14 11:48:00;;;;;;;;;;;16.80;99.90;;;;;;5076186;28;20007;-70
2023/04/14 11:50:29;;;;;;;;;;;16.70;99.90;;;;;;5076470;28;20368;-67
2023/04/14 11:52:58;;;;;;;;;;;16.70;99.90;;;;;;5076770;28;19947;-67
2023/04/14 11:55:25;;;;;;;;;;;16.60;99.90;;;;;;5076675;28;20276;-61
2023/04/14 11:57:53;;;;;;;;;;;16.70;99.90;;;;;;5076230;28;19978;-62
2023/04/14 12:00:19;;;;;;;;;;;16.60;99.90;;;;;;5077560;28;20152;-69
2023/04/14 12:02:46;;;;;;;;;;;16.60;99.90;;;;;;5075617;28;19908;-63
2023/04/14 12:05:17;;;;;;;;;;;16.50;99.90;;;;;;5077441;28;19908;-68
2023/04/14 12:07:44;;;;;;;;;;;16.40;99.90;;;;;;5076538;28;19917;-70
2023/04/14 12:10:11;;;;;;;;;;;16.50;99.90;;;;;;5077372;28;19916;-63
2023/04/14 12:12:38;;;;;;;;;;;16.50;99.90;;;;;;5077022;28;19908;-70
2023/04/14 12:15:04;;;;;;;;;;;16.40;99.90;;;;;;5076734;28;20126;-69
2023/04/14 12:17:31;;;;;;;;;;;16.40;99.90;;;;;;5076351;28;20244;-63
2023/04/14 12:19:58;;;;;;;;;;;16.30;99.90;;;;;;5076199;28;20002;-67
2023/04/14 12:22:28;;;;;;;;;;;16.20;99.90;;;;;;5077184;28;20308;-65
2023/04/14 12:24:56;;;;;;;;;;;16.20;99.90;;;;;;5075418;28;19961;-69
2023/04/14 12:27:23;;;;;;;;;;;16.20;99.90;;;;;;5058727;28;19915;-67
2023/04/14 12:29:50;;;;;;;;;;;16.20;99.90;;;;;;5075362;28;19915;-63
2023/04/14 12:32:17;;;;;;;;;;;16.10;99.90;;;;;;5077337;28;19923;-68
2023/04/14 12:34:56;;;;;;;;;;;16.10;99.90;;;;;;5076768;28;20365;-68
2023/04/14 12:37:25;;;;;;;;;;;16.10;99.90;;;;;;5076466;28;19915;-70
2023/04/14 12:39:59;;;;;;;;;;;16.10;99.90;;;;;;5074961;28;20373;-63
2023/04/14 12:42:41;;;;;;;;;;;16.00;99.90;;;;;;5076873;28;19908;-65
2023/04/14 12:45:09;;;;;;;;;;;16.00;99.90;;;;;;5075514;28;20287;-62
2023/04/14 12:47:36;;;;;;;;;;;16.00;99.90;;;;;;5076017;28;19908;-63
2023/04/14 12:50:26;;;;;;;;;;;15.90;99.90;;;;;;5075547;28;20354;-69
2023/04/14 12:52:54;;;;;;;;;;;15.90;99.90;;;;;;5075306;28;20007;-62
2023/04/14 12:55:21;;;;;;;;;;;15.90;99.90;;;;;;5077136;28;20636;-64
2023/04/14 12:57:52;;;;;;;;;;;15.90;99.90;;;;;;5077311;28;19908;-67
2023/04/14 13:00:22;;;;;;;;;;;15.90;99.90;;;;;;5076512;28;20438;-70
2023/04/14 13:02:50;;;;;;;;;;;15.90;99.90;;;;;;5077370;28;19908;-68
2023/04/14 13:05:16;;;;;;;;;;;15.90;99.90;;;;;;5075490;28;20373;-69
2023/04/14 13:07:43;;;;;;;;;;;15.90;99.90;;;;;;5080430;28;19912;-70
2023/04/14 13:10:10;;;;;;;;;;;15.90;99.90;;;;;;5079633;28;19908;-65
2023/04/14 13:12:37;;;;;;;;;;;15.80;99.90;;;;;;5080137;28;19940;-69
2023/04/14 13:15:04;;;;;;;;;;;15.80;99.90;;;;;;5081087;28;19909;-64
2023/04/14 13:17:31;;;;;;;;;;;15.80;99.90;;;;;;5079038;28;19908;-69
2023/04/14 13:19:58;;;;;;;;;;;15.80;99.90;;;;;;5080815;28;19916;-68
2023/04/14 13:22:24;;;;;;;;;;;15.80;99.90;;;;;;5078838;28;19980;-65
2023/04/14 13:24:51;;;;;;;;;;;15.80;99.90;;;;;;5080551;28;19915;-66
2023/04/14 13:27:18;;;;;;;;;;;15.70;99.90;;;;;;5078898;28;19908;-62
2023/04/14 13:29:45;;;;;;;;;;;15.70;99.90;;;;;;5079585;28;19912;-69
2023/04/14 13:32:12;;;;;;;;;;;15.70;99.90;;;;;;5079839;28;20055;-67
2023/04/14 13:34:39;;;;;;;;;;;15.70;99.90;;;;;;5079438;28;19919;-64
2023/04/14 13:37:05;;;;;;;;;;;15.80;99.90;;;;;;5087155;28;19958;-70
2023/04/14 13:39:32;;;;;;;;;;;15.70;99.90;;;;;;5098273;28;19911;-67
2023/04/14 13:41:58;;;;;;;;;;;15.70;99.90;;;;;;5100845;28;19908;-62
2023/04/14 13:44:25;;;;;;;;;;;15.70;99.90;;;;;;5099998;28;19908;-63
2023/04/14 13:46:52;;;;;;;;;;;15.70;99.90;;;;;;5101482;28;19977;-70
2023/04/14 13:49:19;;;;;;;;;;;15.70;99.90;;;;;;5098527;28;19911;-70
2023/04/14 13:51:46;;;;;;;;;;;15.70;99.90;;;;;;5100396;28;20321;-61
2023/04/14 13:54:13;;;;;;;;;;;15.70;99.90;;;;;;5100753;28;20372;-70
2023/04/14 13:56:39;;;;;;;;;;;15.70;99.90;;;;;;5098648;28;20420;-70
2023/04/14 13:59:06;;;;;;;;;;;15.70;99.90;;;;;;5100213;28;20326;-63
2023/04/14 14:01:33;;;;;;;;;;;15.60;99.90;;;;;;5097973;28;19907;-64
2023/04/14 14:04:00;;;;;;;;;;;15.60;99.90;;;;;;5100660;28;19991;-64
2023/04/14 14:06:27;;;;;;;;;;;15.60;99.90;;;;;;5099201;28;19908;-61
2023/04/14 14:09:03;;;;;;;;;;;15.60;99.90;;;;;;5099352;28;20316;-71
2023/04/14 14:11:30;;;;;;;;;;;15.60;99.90;;;;;;5098757;28;20271;-66
2023/04/14 14:13:57;;;;;;;;;;;15.50;99.90;;;;;;5100119;28;20249;-70
2023/04/14 14:16:23;;;;;;;;;;;15.50;99.90;;;;;;5097886;28;20313;-70
2023/04/14 14:18:51;;;;;;;;;;;15.60;99.90;;;;;;5099658;28;19952;-61
2023/04/14 14:21:17;;;;;;;;;;;15.50;99.90;;;;;;5099817;28;19919;-69
2023/04/14 14:23:44;;;;;;;;;;;15.50;99.90;;;;;;5098636;28;19947;-71